createdAt,value
2018-05-09T00:00:20.013Z,0
2018-05-09T00:00:46.197Z,0
2018-05-09T00:01:12.368Z,0
2018-05-09T00:01:38.539Z,0
2018-05-09T00:02:04.682Z,0
2018-05-09T00:02:30.821Z,0
2018-05-09T00:02:56.960Z,0
2018-05-09T00:03:23.100Z,0
2018-05-09T00:03:49.246Z,0
2018-05-09T00:04:15.386Z,0
2018-05-09T00:04:41.525Z,0
2018-05-09T00:05:07.663Z,0
2018-05-09T00:05:33.808Z,0
2018-05-09T00:05:59.943Z,0
2018-05-09T00:06:26.112Z,0
2018-05-09T00:06:52.252Z,0
2018-05-09T00:07:18.399Z,0
2018-05-09T00:07:44.540Z,0
2018-05-09T00:08:10.674Z,0
2018-05-09T00:08:36.810Z,0
2018-05-09T00:09:02.973Z,0
2018-05-09T00:09:29.112Z,0
2018-05-09T00:09:55.259Z,0
2018-05-09T00:10:21.419Z,0
2018-05-09T00:10:47.588Z,0
2018-05-09T00:11:13.723Z,0
2018-05-09T00:11:39.864Z,0
2018-05-09T00:12:06.039Z,0
2018-05-09T00:12:32.180Z,0
2018-05-09T00:12:58.324Z,0
2018-05-09T00:13:24.480Z,0
2018-05-09T00:13:50.627Z,0
2018-05-09T00:14:16.763Z,0
2018-05-09T00:14:42.925Z,0
2018-05-09T00:15:09.065Z,0
2018-05-09T00:15:35.204Z,0
2018-05-09T00:16:01.369Z,0
2018-05-09T00:16:27.509Z,0
2018-05-09T00:16:53.680Z,0
2018-05-09T00:17:19.808Z,0
2018-05-09T00:17:45.952Z,0
2018-05-09T00:18:12.113Z,0
2018-05-09T00:18:38.254Z,0
2018-05-09T00:19:04.392Z,0
2018-05-09T00:19:30.533Z,0
2018-05-09T00:19:56.671Z,0
2018-05-09T00:20:22.845Z,0
2018-05-09T00:20:49.000Z,0
2018-05-09T00:21:15.148Z,0
2018-05-09T00:21:41.311Z,0
2018-05-09T00:22:07.456Z,0
2018-05-09T00:22:33.605Z,0
2018-05-09T00:22:59.787Z,0
2018-05-09T00:23:25.912Z,0
2018-05-09T00:23:52.066Z,0
2018-05-09T00:24:18.259Z,0
2018-05-09T00:24:44.399Z,0
2018-05-09T00:25:10.540Z,0
2018-05-09T00:25:36.712Z,0
2018-05-09T00:26:02.850Z,0
2018-05-09T00:26:28.989Z,0
2018-05-09T00:26:55.170Z,0
2018-05-09T00:27:21.310Z,0
2018-05-09T00:27:47.456Z,0
2018-05-09T00:28:13.598Z,0
2018-05-09T00:28:39.730Z,0
2018-05-09T00:29:05.876Z,0
2018-05-09T00:29:32.019Z,0
2018-05-09T00:29:58.164Z,0
2018-05-09T00:30:24.310Z,0
2018-05-09T00:30:50.444Z,0
2018-05-09T00:31:16.631Z,0
2018-05-09T00:31:42.770Z,0
2018-05-09T00:32:08.916Z,0
2018-05-09T00:32:35.084Z,0
2018-05-09T00:33:01.222Z,0
2018-05-09T00:33:27.362Z,0
2018-05-09T00:33:53.506Z,0
2018-05-09T00:34:19.667Z,0
2018-05-09T00:34:45.836Z,0
2018-05-09T00:35:12.047Z,0
2018-05-09T00:35:38.114Z,0
2018-05-09T00:36:04.257Z,0
2018-05-09T00:36:30.400Z,0
2018-05-09T00:36:56.539Z,0
2018-05-09T00:37:22.677Z,0
2018-05-09T00:37:48.806Z,0
2018-05-09T00:38:14.950Z,0
2018-05-09T00:38:41.094Z,0
2018-05-09T00:39:07.230Z,0
2018-05-09T00:39:33.371Z,0
2018-05-09T00:39:59.540Z,0
2018-05-09T00:40:25.680Z,0
2018-05-09T00:40:51.808Z,0
2018-05-09T00:41:17.953Z,0
2018-05-09T00:41:44.193Z,0
2018-05-09T00:42:10.256Z,0
2018-05-09T00:42:36.402Z,0
2018-05-09T00:43:02.539Z,0
2018-05-09T00:43:28.671Z,0
2018-05-09T00:43:54.818Z,0
2018-05-09T00:44:20.961Z,0
2018-05-09T00:44:47.103Z,0
2018-05-09T00:45:13.271Z,0
2018-05-09T00:45:39.409Z,0
2018-05-09T00:46:05.543Z,0
2018-05-09T00:46:31.684Z,0
2018-05-09T00:46:57.841Z,0
2018-05-09T00:47:23.980Z,0
2018-05-09T00:47:50.167Z,0
2018-05-09T00:48:16.330Z,0
2018-05-09T00:48:42.497Z,0
2018-05-09T00:49:08.633Z,0
2018-05-09T00:49:34.787Z,0
2018-05-09T00:50:00.951Z,0
2018-05-09T00:50:27.096Z,0
2018-05-09T00:50:53.237Z,0
2018-05-09T00:51:19.377Z,0
2018-05-09T00:51:45.517Z,0
2018-05-09T00:52:11.660Z,0
2018-05-09T00:52:37.798Z,0
2018-05-09T00:53:03.941Z,0
2018-05-09T00:53:30.097Z,0
2018-05-09T00:53:56.236Z,0
2018-05-09T00:54:22.379Z,0
2018-05-09T00:54:48.516Z,0
2018-05-09T00:55:14.663Z,0
2018-05-09T00:55:40.803Z,0
2018-05-09T00:56:06.966Z,0
2018-05-09T00:56:33.102Z,0
2018-05-09T00:56:59.249Z,0
2018-05-09T00:57:25.384Z,0
2018-05-09T00:57:51.552Z,0
2018-05-09T00:58:17.682Z,0
2018-05-09T00:58:43.827Z,0
2018-05-09T00:59:09.962Z,0
2018-05-09T00:59:36.102Z,0
2018-05-09T01:00:02.246Z,0
2018-05-09T01:00:28.407Z,0
2018-05-09T01:00:54.537Z,0
2018-05-09T01:01:20.702Z,0
2018-05-09T01:01:46.864Z,0
2018-05-09T01:02:13.005Z,0
2018-05-09T01:02:39.144Z,0
2018-05-09T01:03:05.286Z,0
2018-05-09T01:03:31.429Z,0
2018-05-09T01:03:57.562Z,0
2018-05-09T01:04:23.707Z,0
2018-05-09T01:04:49.844Z,0
2018-05-09T01:05:15.992Z,0
2018-05-09T01:05:42.154Z,0
2018-05-09T01:06:08.293Z,0
2018-05-09T01:06:34.433Z,0
2018-05-09T01:07:00.600Z,0
2018-05-09T01:07:26.734Z,0
2018-05-09T01:07:52.877Z,0
2018-05-09T01:08:19.027Z,0
2018-05-09T01:08:45.158Z,0
2018-05-09T01:09:11.291Z,0
2018-05-09T01:09:37.434Z,0
2018-05-09T01:10:03.593Z,0
2018-05-09T01:10:29.726Z,0
2018-05-09T01:10:55.868Z,0
2018-05-09T01:11:22.005Z,0
2018-05-09T01:11:48.172Z,0
2018-05-09T01:12:14.306Z,0
2018-05-09T01:12:40.497Z,0
2018-05-09T01:13:06.686Z,0
2018-05-09T01:13:32.827Z,0
2018-05-09T01:13:58.971Z,0
2018-05-09T01:14:25.108Z,0
2018-05-09T01:14:51.250Z,0
2018-05-09T01:15:17.391Z,0
2018-05-09T01:15:43.573Z,0
2018-05-09T01:16:09.716Z,0
2018-05-09T01:16:35.861Z,0
2018-05-09T01:17:02.008Z,0
2018-05-09T01:17:28.164Z,0
2018-05-09T01:17:54.353Z,0
2018-05-09T01:18:20.491Z,0
2018-05-09T01:18:46.635Z,0
2018-05-09T01:19:12.773Z,0
2018-05-09T01:19:38.910Z,0
2018-05-09T01:20:05.074Z,0
2018-05-09T01:20:31.208Z,0
2018-05-09T01:20:57.349Z,0
2018-05-09T01:21:23.513Z,0
2018-05-09T01:21:49.644Z,0
2018-05-09T01:22:15.782Z,0
2018-05-09T01:22:41.942Z,0
2018-05-09T01:23:08.107Z,0
2018-05-09T01:23:34.249Z,0
2018-05-09T01:24:00.409Z,0
2018-05-09T01:24:26.549Z,0
2018-05-09T01:24:52.688Z,0
2018-05-09T01:25:18.823Z,0
2018-05-09T01:25:44.968Z,0
2018-05-09T01:26:11.111Z,0
2018-05-09T01:26:37.242Z,0
2018-05-09T01:27:03.414Z,0
2018-05-09T01:27:29.569Z,0
2018-05-09T01:27:55.706Z,0
2018-05-09T01:28:21.871Z,0
2018-05-09T01:28:48.009Z,0
2018-05-09T01:29:14.170Z,0
2018-05-09T01:29:40.312Z,0
2018-05-09T01:30:06.450Z,0
2018-05-09T01:30:32.595Z,0
2018-05-09T01:30:58.728Z,0
2018-05-09T01:31:24.922Z,0
2018-05-09T01:31:51.066Z,0
2018-05-09T01:32:17.213Z,0
2018-05-09T01:32:43.349Z,0
2018-05-09T01:33:09.486Z,0
2018-05-09T01:33:35.630Z,0
2018-05-09T01:34:01.770Z,0
2018-05-09T01:34:27.912Z,0
2018-05-09T01:34:54.051Z,0
2018-05-09T01:35:20.186Z,0
2018-05-09T01:35:46.326Z,0
2018-05-09T01:36:12.494Z,0
2018-05-09T01:36:38.634Z,0
2018-05-09T01:37:04.798Z,0
2018-05-09T01:37:30.939Z,0
2018-05-09T01:37:57.097Z,0
2018-05-09T01:38:23.236Z,0
2018-05-09T01:38:49.380Z,0
2018-05-09T01:39:15.574Z,0
2018-05-09T01:39:41.707Z,0
2018-05-09T01:40:07.867Z,0
2018-05-09T01:40:34.008Z,0
2018-05-09T01:41:00.150Z,0
2018-05-09T01:41:26.296Z,0
2018-05-09T01:41:52.451Z,0
2018-05-09T01:42:18.614Z,0
2018-05-09T01:42:44.748Z,0
2018-05-09T01:43:10.902Z,0
2018-05-09T01:43:37.053Z,0
2018-05-09T01:44:03.220Z,0
2018-05-09T01:44:29.388Z,0
2018-05-09T01:44:55.548Z,0
2018-05-09T01:45:21.685Z,0
2018-05-09T01:45:47.833Z,0
2018-05-09T01:46:13.991Z,0
2018-05-09T01:46:40.132Z,0
2018-05-09T01:47:06.276Z,0
2018-05-09T01:47:32.414Z,0
2018-05-09T01:47:58.555Z,0
2018-05-09T01:48:24.725Z,0
2018-05-09T01:48:50.869Z,0
2018-05-09T01:49:17.003Z,0
2018-05-09T01:49:43.138Z,0
2018-05-09T01:50:09.279Z,0
2018-05-09T01:50:35.421Z,0
2018-05-09T01:51:01.555Z,0
2018-05-09T01:51:27.719Z,0
2018-05-09T01:51:53.861Z,0
2018-05-09T01:52:19.992Z,0
2018-05-09T01:52:46.144Z,0
2018-05-09T01:53:12.282Z,0
2018-05-09T01:53:38.447Z,0
2018-05-09T01:54:04.624Z,0
2018-05-09T01:54:30.763Z,0
2018-05-09T01:54:56.971Z,0
2018-05-09T01:55:23.032Z,0
2018-05-09T01:55:49.176Z,0
2018-05-09T01:56:15.317Z,0
2018-05-09T01:56:41.491Z,0
2018-05-09T01:57:07.626Z,0
2018-05-09T01:57:33.767Z,0
2018-05-09T01:57:59.900Z,0
2018-05-09T01:58:26.050Z,0
2018-05-09T01:58:52.182Z,0
2018-05-09T01:59:18.314Z,0
2018-05-09T01:59:44.462Z,0
2018-05-09T02:00:10.618Z,0
2018-05-09T02:00:36.757Z,0
2018-05-09T02:01:02.896Z,0
2018-05-09T02:01:29.030Z,0
2018-05-09T02:01:55.176Z,0
2018-05-09T02:02:21.313Z,0
2018-05-09T02:02:47.452Z,0
2018-05-09T02:03:13.591Z,0
2018-05-09T02:03:39.742Z,0
2018-05-09T02:04:05.908Z,0
2018-05-09T02:04:32.047Z,0
2018-05-09T02:04:58.182Z,0
2018-05-09T02:05:24.327Z,0
2018-05-09T02:05:50.465Z,0
2018-05-09T02:06:16.603Z,0
2018-05-09T02:06:42.734Z,0
2018-05-09T02:07:08.873Z,0
2018-05-09T02:07:35.013Z,0
2018-05-09T02:08:01.158Z,0
2018-05-09T02:08:27.293Z,0
2018-05-09T02:08:53.441Z,0
2018-05-09T02:09:19.571Z,0
2018-05-09T02:09:45.714Z,0
2018-05-09T02:10:11.857Z,0
2018-05-09T02:10:37.991Z,0
2018-05-09T02:11:04.126Z,0
2018-05-09T02:11:30.273Z,0
2018-05-09T02:11:56.401Z,0
2018-05-09T02:12:22.550Z,0
2018-05-09T02:12:48.690Z,0
2018-05-09T02:13:14.832Z,0
2018-05-09T02:13:40.967Z,0
2018-05-09T02:14:07.106Z,0
2018-05-09T02:14:33.277Z,0
2018-05-09T02:14:59.403Z,0
2018-05-09T02:15:25.572Z,0
2018-05-09T02:15:51.716Z,0
2018-05-09T02:16:17.875Z,0
2018-05-09T02:16:44.017Z,0
2018-05-09T02:17:10.158Z,0
2018-05-09T02:17:36.340Z,0
2018-05-09T02:18:02.435Z,0
2018-05-09T02:18:28.573Z,0
2018-05-09T02:18:54.725Z,0
2018-05-09T02:19:20.891Z,0
2018-05-09T02:19:47.054Z,0
2018-05-09T02:20:13.192Z,0
2018-05-09T02:20:39.338Z,0
2018-05-09T02:21:05.482Z,0
2018-05-09T02:21:31.625Z,0
2018-05-09T02:21:57.767Z,0
2018-05-09T02:22:23.902Z,0
2018-05-09T02:22:50.043Z,0
2018-05-09T02:23:16.209Z,0
2018-05-09T02:23:42.338Z,0
2018-05-09T02:24:08.536Z,0
2018-05-09T02:24:34.628Z,0
2018-05-09T02:25:00.797Z,0
2018-05-09T02:25:26.952Z,0
2018-05-09T02:25:53.115Z,0
2018-05-09T02:26:19.281Z,0
2018-05-09T02:26:45.420Z,0
2018-05-09T02:27:11.585Z,0
2018-05-09T02:27:37.721Z,0
2018-05-09T02:28:03.858Z,0
2018-05-09T02:28:30.032Z,0
2018-05-09T02:28:56.193Z,0
2018-05-09T02:29:22.333Z,0
2018-05-09T02:29:48.478Z,0
2018-05-09T02:30:14.632Z,0
2018-05-09T02:30:40.804Z,0
2018-05-09T02:31:06.966Z,0
2018-05-09T02:31:33.113Z,0
2018-05-09T02:31:59.252Z,0
2018-05-09T02:32:25.388Z,0
2018-05-09T02:32:51.523Z,0
2018-05-09T02:33:17.716Z,0
2018-05-09T02:33:43.878Z,0
2018-05-09T02:34:10.064Z,0
2018-05-09T02:34:36.255Z,0
2018-05-09T02:35:02.410Z,0
2018-05-09T02:35:28.556Z,0
2018-05-09T02:35:54.692Z,0
2018-05-09T02:36:20.851Z,0
2018-05-09T02:36:47.039Z,0
2018-05-09T02:37:13.205Z,0
2018-05-09T02:37:39.368Z,0
2018-05-09T02:38:05.533Z,0
2018-05-09T02:38:31.696Z,0
2018-05-09T02:38:57.847Z,0
2018-05-09T02:39:23.999Z,0
2018-05-09T02:39:50.147Z,0
2018-05-09T02:40:16.300Z,0
2018-05-09T02:40:42.464Z,0
2018-05-09T02:41:08.661Z,0
2018-05-09T02:41:34.831Z,0
2018-05-09T02:42:00.990Z,0
2018-05-09T02:42:27.129Z,0
2018-05-09T02:42:53.320Z,0
2018-05-09T02:43:19.449Z,0
2018-05-09T02:43:45.607Z,0
2018-05-09T02:44:11.751Z,0
2018-05-09T02:44:37.945Z,0
2018-05-09T02:45:04.085Z,0
2018-05-09T02:45:30.275Z,0
2018-05-09T02:45:56.465Z,0
2018-05-09T02:46:22.678Z,0
2018-05-09T02:46:48.813Z,0
2018-05-09T02:47:15.006Z,0
2018-05-09T02:47:41.246Z,0
2018-05-09T02:48:07.383Z,0
2018-05-09T02:48:33.561Z,0
2018-05-09T02:48:59.693Z,0
2018-05-09T02:49:25.860Z,0
2018-05-09T02:49:52.153Z,0
2018-05-09T02:50:18.172Z,0
2018-05-09T02:50:44.336Z,0
2018-05-09T02:51:10.497Z,0
2018-05-09T02:51:36.661Z,0
2018-05-09T02:52:02.822Z,0
2018-05-09T02:52:28.962Z,0
2018-05-09T02:52:55.104Z,0
2018-05-09T02:53:21.241Z,0
2018-05-09T02:53:47.404Z,0
2018-05-09T02:54:13.568Z,0
2018-05-09T02:54:39.704Z,0
2018-05-09T02:55:05.849Z,0
2018-05-09T02:55:31.987Z,0
2018-05-09T02:55:58.170Z,0
2018-05-09T02:56:24.304Z,0
2018-05-09T02:56:50.476Z,0
2018-05-09T02:57:16.634Z,0
2018-05-09T02:57:42.773Z,0
2018-05-09T02:58:08.933Z,0
2018-05-09T02:58:35.095Z,0
2018-05-09T02:59:01.299Z,0
2018-05-09T02:59:27.427Z,0
2018-05-09T02:59:53.590Z,0
2018-05-09T03:00:19.751Z,0
2018-05-09T03:00:45.921Z,0
2018-05-09T03:01:12.057Z,0
2018-05-09T03:01:38.204Z,0
2018-05-09T03:02:04.337Z,0
2018-05-09T03:02:30.475Z,0
2018-05-09T03:02:56.612Z,0
2018-05-09T03:03:22.775Z,0
2018-05-09T03:03:48.937Z,0
2018-05-09T03:04:15.104Z,0
2018-05-09T03:04:41.251Z,0
2018-05-09T03:05:07.411Z,0
2018-05-09T03:05:33.552Z,0
2018-05-09T03:05:59.689Z,0
2018-05-09T03:06:25.875Z,0
2018-05-09T03:06:52.013Z,0
2018-05-09T03:07:18.166Z,0
2018-05-09T03:07:44.328Z,0
2018-05-09T03:08:10.492Z,0
2018-05-09T03:08:36.662Z,0
2018-05-09T03:09:02.831Z,0
2018-05-09T03:09:28.970Z,0
2018-05-09T03:09:55.117Z,0
2018-05-09T03:10:21.287Z,0
2018-05-09T03:10:47.435Z,0
2018-05-09T03:11:13.576Z,0
2018-05-09T03:11:39.744Z,0
2018-05-09T03:12:05.906Z,0
2018-05-09T03:12:32.089Z,0
2018-05-09T03:12:58.228Z,0
2018-05-09T03:13:24.395Z,0
2018-05-09T03:13:50.530Z,0
2018-05-09T03:14:16.694Z,0
2018-05-09T03:14:42.854Z,0
2018-05-09T03:15:08.990Z,0
2018-05-09T03:15:35.133Z,0
2018-05-09T03:16:01.299Z,0
2018-05-09T03:16:27.438Z,0
2018-05-09T03:16:53.578Z,0
2018-05-09T03:17:19.718Z,0
2018-05-09T03:17:45.856Z,0
2018-05-09T03:18:11.994Z,0
2018-05-09T03:18:38.143Z,0
2018-05-09T03:19:04.296Z,0
2018-05-09T03:19:30.433Z,0
2018-05-09T03:19:56.568Z,0
2018-05-09T03:20:22.820Z,0
2018-05-09T03:20:48.895Z,0
2018-05-09T03:21:15.064Z,0
2018-05-09T03:21:41.222Z,0
2018-05-09T03:22:07.366Z,0
2018-05-09T03:22:33.499Z,0
2018-05-09T03:22:59.640Z,0
2018-05-09T03:23:25.805Z,0
2018-05-09T03:23:51.943Z,0
2018-05-09T03:24:18.086Z,0
2018-05-09T03:24:44.225Z,0
2018-05-09T03:25:10.372Z,0
2018-05-09T03:25:36.541Z,0
2018-05-09T03:26:02.702Z,0
2018-05-09T03:26:28.847Z,0
2018-05-09T03:26:54.988Z,0
2018-05-09T03:27:21.132Z,0
2018-05-09T03:27:47.267Z,0
2018-05-09T03:28:13.409Z,0
2018-05-09T03:28:39.541Z,0
2018-05-09T03:29:05.679Z,0
2018-05-09T03:29:31.815Z,0
2018-05-09T03:29:57.999Z,0
2018-05-09T03:30:24.135Z,0
2018-05-09T03:30:50.327Z,0
2018-05-09T03:31:16.489Z,0
2018-05-09T03:31:42.646Z,0
2018-05-09T03:32:08.831Z,0
2018-05-09T03:32:34.972Z,0
2018-05-09T03:33:01.127Z,0
2018-05-09T03:33:27.269Z,0
2018-05-09T03:33:53.411Z,0
2018-05-09T03:34:19.579Z,0
2018-05-09T03:34:45.730Z,0
2018-05-09T03:35:11.873Z,0
2018-05-09T03:35:38.013Z,0
2018-05-09T03:36:04.146Z,0
2018-05-09T03:36:30.289Z,5
2018-05-09T03:36:56.460Z,5
2018-05-09T03:37:22.604Z,5
2018-05-09T03:37:48.753Z,5
2018-05-09T03:38:14.895Z,5
2018-05-09T03:38:41.031Z,5
2018-05-09T03:39:07.170Z,5
2018-05-09T03:39:33.337Z,5
2018-05-09T03:39:59.473Z,5
2018-05-09T03:40:25.615Z,5
2018-05-09T03:40:51.755Z,5
2018-05-09T03:41:17.922Z,5
2018-05-09T03:41:44.059Z,5
2018-05-09T03:42:10.221Z,5
2018-05-09T03:42:36.388Z,5
2018-05-09T03:43:02.534Z,5
2018-05-09T03:43:28.670Z,5
2018-05-09T03:43:54.832Z,5
2018-05-09T03:44:20.997Z,10
2018-05-09T03:44:47.134Z,10
2018-05-09T03:45:13.275Z,10
2018-05-09T03:45:39.414Z,10
2018-05-09T03:46:05.556Z,10
2018-05-09T03:46:31.685Z,10
2018-05-09T03:46:57.826Z,10
2018-05-09T03:47:23.962Z,10
2018-05-09T03:47:50.108Z,10
2018-05-09T03:48:16.241Z,10
2018-05-09T03:48:42.385Z,10
2018-05-09T03:49:08.545Z,10
2018-05-09T03:49:34.748Z,15
2018-05-09T03:50:00.825Z,15
2018-05-09T03:50:26.967Z,15
2018-05-09T03:50:53.103Z,15
2018-05-09T03:51:19.241Z,15
2018-05-09T03:51:45.383Z,15
2018-05-09T03:52:11.525Z,15
2018-05-09T03:52:37.663Z,15
2018-05-09T03:53:03.806Z,15
2018-05-09T03:53:29.942Z,15
2018-05-09T03:53:56.093Z,20
2018-05-09T03:54:22.239Z,20
2018-05-09T03:54:48.372Z,20
2018-05-09T03:55:14.520Z,20
2018-05-09T03:55:40.687Z,20
2018-05-09T03:56:06.850Z,20
2018-05-09T03:56:32.985Z,20
2018-05-09T03:56:59.129Z,20
2018-05-09T03:57:25.269Z,20
2018-05-09T03:57:51.418Z,25
2018-05-09T03:58:17.555Z,25
2018-05-09T03:58:43.699Z,25
2018-05-09T03:59:09.835Z,25
2018-05-09T03:59:35.979Z,25
2018-05-09T04:00:02.137Z,25
2018-05-09T04:00:28.276Z,25
2018-05-09T04:00:54.414Z,30
2018-05-09T04:01:20.557Z,30
2018-05-09T04:01:46.733Z,30
2018-05-09T04:02:12.878Z,30
2018-05-09T04:02:39.017Z,30
2018-05-09T04:03:05.184Z,30
2018-05-09T04:03:31.321Z,30
2018-05-09T04:03:57.461Z,30
2018-05-09T04:04:23.599Z,35
2018-05-09T04:04:49.731Z,35
2018-05-09T04:05:15.870Z,35
2018-05-09T04:05:42.010Z,35
2018-05-09T04:06:08.174Z,35
2018-05-09T04:06:34.313Z,35
2018-05-09T04:07:00.460Z,35
2018-05-09T04:07:26.598Z,40
2018-05-09T04:07:52.737Z,40
2018-05-09T04:08:18.899Z,40
2018-05-09T04:08:45.064Z,40
2018-05-09T04:09:11.198Z,40
2018-05-09T04:09:37.362Z,40
2018-05-09T04:10:03.505Z,45
2018-05-09T04:10:29.643Z,45
2018-05-09T04:10:55.774Z,45
2018-05-09T04:11:21.911Z,45
2018-05-09T04:11:48.058Z,45
2018-05-09T04:12:14.192Z,45
2018-05-09T04:12:40.339Z,45
2018-05-09T04:13:06.504Z,50
2018-05-09T04:13:32.668Z,50
2018-05-09T04:13:58.865Z,50
2018-05-09T04:14:24.994Z,50
2018-05-09T04:14:51.210Z,50
2018-05-09T04:15:17.279Z,50
2018-05-09T04:15:43.442Z,55
2018-05-09T04:16:09.581Z,55
2018-05-09T04:16:35.725Z,55
2018-05-09T04:17:01.891Z,55
2018-05-09T04:17:28.034Z,55
2018-05-09T04:17:54.174Z,55
2018-05-09T04:18:20.317Z,60
2018-05-09T04:18:46.453Z,60
2018-05-09T04:19:12.588Z,60
2018-05-09T04:19:38.725Z,60
2018-05-09T04:20:04.864Z,60
2018-05-09T04:20:31.003Z,60
2018-05-09T04:20:57.237Z,65
2018-05-09T04:21:23.339Z,65
2018-05-09T04:21:49.474Z,65
2018-05-09T04:22:15.626Z,65
2018-05-09T04:22:41.775Z,65
2018-05-09T04:23:07.911Z,65
2018-05-09T04:23:34.048Z,70
2018-05-09T04:24:00.196Z,70
2018-05-09T04:24:26.377Z,70
2018-05-09T04:24:52.513Z,70
2018-05-09T04:25:18.647Z,70
2018-05-09T04:25:44.791Z,70
2018-05-09T04:26:10.931Z,75
2018-05-09T04:26:37.064Z,75
2018-05-09T04:27:03.205Z,75
2018-05-09T04:27:29.341Z,75
2018-05-09T04:27:55.485Z,75
2018-05-09T04:28:21.649Z,80
2018-05-09T04:28:47.789Z,80
2018-05-09T04:29:13.923Z,80
2018-05-09T04:29:40.117Z,80
2018-05-09T04:30:06.281Z,80
2018-05-09T04:30:32.425Z,80
2018-05-09T04:30:58.585Z,85
2018-05-09T04:31:24.734Z,85
2018-05-09T04:31:50.868Z,85
2018-05-09T04:32:17.012Z,85
2018-05-09T04:32:43.148Z,85
2018-05-09T04:33:09.293Z,85
2018-05-09T04:33:35.427Z,90
2018-05-09T04:34:01.571Z,90
2018-05-09T04:34:27.737Z,90
2018-05-09T04:34:53.875Z,90
2018-05-09T04:35:20.033Z,90
2018-05-09T04:35:46.174Z,90
2018-05-09T04:36:12.394Z,95
2018-05-09T04:36:38.477Z,95
2018-05-09T04:37:04.609Z,95
2018-05-09T04:37:30.753Z,95
2018-05-09T04:37:56.893Z,95
2018-05-09T04:38:23.031Z,100
2018-05-09T04:38:49.211Z,100
2018-05-09T04:39:15.356Z,100
2018-05-09T04:39:41.495Z,100
2018-05-09T04:40:07.630Z,100
2018-05-09T04:40:33.796Z,105
2018-05-09T04:40:59.927Z,105
2018-05-09T04:41:26.153Z,105
2018-05-09T04:41:52.318Z,105
2018-05-09T04:42:18.456Z,105
2018-05-09T04:42:44.594Z,105
2018-05-09T04:43:10.735Z,105
2018-05-09T04:43:36.875Z,105
2018-05-09T04:44:03.016Z,105
2018-05-09T04:44:29.157Z,105
2018-05-09T04:44:55.295Z,105
2018-05-09T04:45:21.466Z,110
2018-05-09T04:45:47.596Z,110
2018-05-09T04:46:13.738Z,110
2018-05-09T04:46:39.953Z,110
2018-05-09T04:47:06.020Z,110
2018-05-09T04:47:32.207Z,115
2018-05-09T04:47:58.343Z,115
2018-05-09T04:48:24.486Z,115
2018-05-09T04:48:50.622Z,115
2018-05-09T04:49:16.874Z,115
2018-05-09T04:49:42.942Z,120
2018-05-09T04:50:09.080Z,120
2018-05-09T04:50:35.223Z,120
2018-05-09T04:51:01.358Z,120
2018-05-09T04:51:27.507Z,120
2018-05-09T04:51:53.637Z,125
2018-05-09T04:52:19.779Z,125
2018-05-09T04:52:45.922Z,125
2018-05-09T04:53:12.060Z,125
2018-05-09T04:53:38.195Z,125
2018-05-09T04:54:04.330Z,130
2018-05-09T04:54:30.553Z,130
2018-05-09T04:54:56.686Z,130
2018-05-09T04:55:22.806Z,130
2018-05-09T04:55:48.911Z,130
2018-05-09T04:56:15.043Z,130
2018-05-09T04:56:41.278Z,135
2018-05-09T04:57:07.351Z,135
2018-05-09T04:57:33.494Z,135
2018-05-09T04:57:59.642Z,135
2018-05-09T04:58:25.811Z,135
2018-05-09T04:58:51.949Z,140
2018-05-09T04:59:18.126Z,140
2018-05-09T04:59:44.258Z,140
2018-05-09T05:00:10.445Z,140
2018-05-09T05:00:36.545Z,140
2018-05-09T05:01:02.688Z,140
2018-05-09T05:01:28.853Z,145
2018-05-09T05:01:54.994Z,145
2018-05-09T05:02:21.140Z,145
2018-05-09T05:02:47.276Z,145
2018-05-09T05:03:13.421Z,145
2018-05-09T05:03:39.556Z,145
2018-05-09T05:04:05.707Z,150
2018-05-09T05:04:31.839Z,150
2018-05-09T05:04:58.010Z,150
2018-05-09T05:05:24.140Z,150
2018-05-09T05:05:50.284Z,150
2018-05-09T05:06:16.410Z,150
2018-05-09T05:06:42.561Z,150
2018-05-09T05:07:08.742Z,155
2018-05-09T05:07:34.902Z,160
2018-05-09T05:08:01.046Z,155
2018-05-09T05:08:27.191Z,155
2018-05-09T05:08:53.351Z,155
2018-05-09T05:09:19.489Z,155
2018-05-09T05:09:45.648Z,160
2018-05-09T05:10:11.809Z,160
2018-05-09T05:10:37.977Z,160
2018-05-09T05:11:04.117Z,160
2018-05-09T05:11:30.257Z,160
2018-05-09T05:11:56.391Z,160
2018-05-09T05:12:22.552Z,165
2018-05-09T05:12:48.698Z,165
2018-05-09T05:13:14.864Z,165
2018-05-09T05:13:40.997Z,165
2018-05-09T05:14:07.174Z,165
2018-05-09T05:14:33.306Z,165
2018-05-09T05:14:59.440Z,165
2018-05-09T05:15:25.576Z,170
2018-05-09T05:15:51.743Z,170
2018-05-09T05:16:17.863Z,170
2018-05-09T05:16:44.054Z,170
2018-05-09T05:17:10.195Z,170
2018-05-09T05:17:36.331Z,175
2018-05-09T05:18:02.471Z,180
2018-05-09T05:18:28.605Z,175
2018-05-09T05:18:54.744Z,175
2018-05-09T05:19:20.917Z,175
2018-05-09T05:19:47.051Z,175
2018-05-09T05:20:13.193Z,175
2018-05-09T05:20:39.319Z,175
2018-05-09T05:21:05.495Z,180
2018-05-09T05:21:31.636Z,180
2018-05-09T05:21:57.771Z,180
2018-05-09T05:22:23.899Z,180
2018-05-09T05:22:50.038Z,180
2018-05-09T05:23:16.177Z,180
2018-05-09T05:23:42.324Z,180
2018-05-09T05:24:08.456Z,185
2018-05-09T05:24:34.597Z,185
2018-05-09T05:25:00.759Z,185
2018-05-09T05:25:26.962Z,185
2018-05-09T05:25:53.061Z,185
2018-05-09T05:26:19.194Z,185
2018-05-09T05:26:45.334Z,185
2018-05-09T05:27:11.538Z,190
2018-05-09T05:27:37.610Z,190
2018-05-09T05:28:03.744Z,190
2018-05-09T05:28:29.907Z,190
2018-05-09T05:28:56.076Z,190
2018-05-09T05:29:22.220Z,190
2018-05-09T05:29:48.361Z,195
2018-05-09T05:30:14.495Z,195
2018-05-09T05:30:40.640Z,200
2018-05-09T05:31:06.789Z,195
2018-05-09T05:31:32.924Z,195
2018-05-09T05:31:59.058Z,195
2018-05-09T05:32:25.224Z,200
2018-05-09T05:32:51.392Z,200
2018-05-09T05:33:17.524Z,200
2018-05-09T05:33:43.674Z,200
2018-05-09T05:34:09.834Z,200
2018-05-09T05:34:35.979Z,200
2018-05-09T05:35:02.117Z,200
2018-05-09T05:35:28.260Z,205
2018-05-09T05:35:54.424Z,205
2018-05-09T05:36:20.584Z,205
2018-05-09T05:36:46.725Z,205
2018-05-09T05:37:12.888Z,205
2018-05-09T05:37:39.053Z,205
2018-05-09T05:38:05.195Z,210
2018-05-09T05:38:31.333Z,210
2018-05-09T05:38:57.500Z,210
2018-05-09T05:39:23.698Z,210
2018-05-09T05:39:49.910Z,210
2018-05-09T05:40:16.144Z,210
2018-05-09T05:40:42.397Z,210
2018-05-09T05:41:08.553Z,210
2018-05-09T05:41:34.757Z,215
2018-05-09T05:42:00.904Z,215
2018-05-09T05:42:27.047Z,215
2018-05-09T05:42:53.211Z,215
2018-05-09T05:43:19.360Z,215
2018-05-09T05:43:45.511Z,220
2018-05-09T05:44:11.653Z,215
2018-05-09T05:44:37.814Z,215
2018-05-09T05:45:04.071Z,220
2018-05-09T05:45:30.232Z,220
2018-05-09T05:45:56.295Z,220
2018-05-09T05:46:22.462Z,220
2018-05-09T05:46:48.610Z,220
2018-05-09T05:47:14.808Z,220
2018-05-09T05:47:40.877Z,220
2018-05-09T05:48:07.019Z,220
2018-05-09T05:48:33.161Z,225
2018-05-09T05:48:59.325Z,225
2018-05-09T05:49:25.532Z,225
2018-05-09T05:49:51.606Z,225
2018-05-09T05:50:17.748Z,225
2018-05-09T05:50:43.886Z,225
2018-05-09T05:51:10.030Z,225
2018-05-09T05:51:36.163Z,225
2018-05-09T05:52:02.312Z,230
2018-05-09T05:52:28.448Z,230
2018-05-09T05:52:54.588Z,230
2018-05-09T05:53:20.739Z,230
2018-05-09T05:53:46.870Z,230
2018-05-09T05:54:13.006Z,230
2018-05-09T05:54:39.144Z,230
2018-05-09T05:55:05.287Z,230
2018-05-09T05:55:31.455Z,235
2018-05-09T05:55:57.706Z,235
2018-05-09T05:56:23.782Z,235
2018-05-09T05:56:49.918Z,235
2018-05-09T05:57:16.073Z,240
2018-05-09T05:57:42.220Z,235
2018-05-09T05:58:08.368Z,235
2018-05-09T05:58:34.509Z,235
2018-05-09T05:59:00.655Z,240
2018-05-09T05:59:26.791Z,240
2018-05-09T05:59:52.930Z,240
2018-05-09T06:00:19.077Z,240
2018-05-09T06:00:45.213Z,240
2018-05-09T06:01:11.354Z,240
2018-05-09T06:01:37.521Z,240
2018-05-09T06:02:03.656Z,245
2018-05-09T06:02:29.796Z,245
2018-05-09T06:02:55.961Z,245
2018-05-09T06:03:22.100Z,245
2018-05-09T06:03:48.239Z,245
2018-05-09T06:04:14.382Z,245
2018-05-09T06:04:40.545Z,245
2018-05-09T06:05:06.686Z,245
2018-05-09T06:05:32.825Z,250
2018-05-09T06:05:58.987Z,250
2018-05-09T06:06:25.240Z,250
2018-05-09T06:06:51.288Z,250
2018-05-09T06:07:17.436Z,250
2018-05-09T06:07:43.578Z,250
2018-05-09T06:08:09.741Z,250
2018-05-09T06:08:35.891Z,250
2018-05-09T06:09:02.033Z,255
2018-05-09T06:09:28.167Z,255
2018-05-09T06:09:54.334Z,255
2018-05-09T06:10:20.476Z,255
2018-05-09T06:10:46.622Z,255
2018-05-09T06:11:12.759Z,255
2018-05-09T06:11:38.901Z,255
2018-05-09T06:12:05.038Z,260
2018-05-09T06:12:31.181Z,260
2018-05-09T06:12:57.341Z,260
2018-05-09T06:13:23.489Z,260
2018-05-09T06:13:49.626Z,260
2018-05-09T06:14:15.764Z,260
2018-05-09T06:14:41.929Z,260
2018-05-09T06:15:08.087Z,260
2018-05-09T06:15:34.240Z,255
2018-05-09T06:16:00.370Z,255
2018-05-09T06:16:26.542Z,260
2018-05-09T06:16:52.698Z,260
2018-05-09T06:17:18.931Z,260